Norris Rancho Marino Reserve, California Weather observations

Data are for 10 minute period ending at time listed.
 Day   Time   Solar   Ave.   Ave.  Ave.  Vector  Max.   Baro.   Total    
  of    of     Rad.   Air    Rel.  Wind   Wind   Wind  Press.  Precip.   
Year   Day            Temp.  Hum.  Speed  Dir.   Gust                    
2016   (PST)  Kw/m2    F      %     mph   deg.    mph    mb.     in.     
-------------------------------------------------------------------------
 181    4:50   0.00   50.3    98    0.8    38     2.0   1009.9    0.00 
 181    5:00   0.00   50.3    98    1.3    26     2.4   1010.0    0.00 
 181    5:10   0.01   50.0    98    2.3     2     3.2   1010.1    0.00 
 181    5:20   0.01   50.1    98    1.8     1     2.7   1010.2    0.00 
 181    5:30   0.01   50.1    98    2.7   298     5.5   1010.2    0.00 
 181    5:40   0.03   49.8    98    2.9   289     5.6   1010.3    0.00 
 181    5:50   0.03   49.7    98    3.7   289     6.2   1010.3    0.00 
 181    6:00   0.04   49.7    98    3.4   289     5.0   1010.3    0.00 
 181    6:10   0.05   49.7    98    2.5   271     3.9   1010.4    0.00 
 181    6:20   0.06   49.7    98    3.3   273     4.7   1010.5    0.00 
 181    6:30   0.08   49.8    98    3.0   264     4.3   1010.6    0.00 
 181    6:40   0.08   49.8    98    2.6   241     3.6   1010.7    0.00 
 181    6:50   0.10   49.9    98    2.6   219     3.7   1010.9    0.00 
 181    7:00   0.10   49.6    98    2.5   231     3.4   1011.0    0.00 
 181    7:10   0.12   49.8    98    2.3   242     3.6   1011.1    0.00 
 181    7:20   0.14   49.7    98    1.9   259     3.4   1011.2    0.00 
 181    7:30   0.19   50.3    98    1.0   234     2.6   1011.4    0.00 
 181    7:40   0.19   50.1    98    2.9   237     5.3   1011.6    0.00 
 181    7:50   0.20   49.7    98    4.0   252     5.6   1011.8    0.00 
 181    8:00   0.24   49.5    98    4.0   284     5.5   1011.9    0.00 
 181    8:10   0.30   50.3    98    4.3   283     6.5   1011.9    0.00 
 181    8:20   0.29   50.7    98    5.9   282     8.1   1012.0    0.00 
 181    8:30   0.28   50.6    98    7.2   288    10.0   1012.2    0.00 
 181    8:40   0.35   50.7    98    7.5   297    10.6   1012.2    0.00 
 181    8:50   0.32   51.4    98    8.2   296    10.7   1012.1    0.00 
 181    9:00   0.32   51.5    98    7.3   295     9.9   1012.0    0.00 
 181    9:10   0.32   51.6    98    7.6   288    10.2   1012.0    0.00 
 181    9:20   0.40   52.1    98    7.4   292    10.1   1012.0    0.00 
 181    9:30   0.41   52.3    98    8.4   287    10.8   1012.0    0.00 
 181    9:40   0.42   52.5    98   10.2   288    13.2   1012.1    0.00 
 181    9:50   0.42   52.7    98   11.3   288    14.2   1012.1    0.00 
 181   10:00   0.47   53.2    98   11.8   289    14.9   1012.0    0.00 
 181   10:10   0.54   53.4    98   12.6   287    15.5   1012.0    0.00 
 181   10:20   0.59   54.0    96   11.2   288    14.1   1012.0    0.00 
 181   10:30   0.70   54.5    93    9.8   286    12.4   1012.0    0.00 
 181   10:40   0.74   54.4    90   10.0   286    12.1   1012.0    0.00 
 181   10:50   0.84   55.2    88   11.1   286    14.7   1012.0    0.00 
 181   11:00   0.90   55.7    87   12.1   286    14.8   1012.0    0.00 
 181   11:10   0.90   56.1    85   14.3   290    20.2   1012.1    0.00 
 181   11:20   0.91   56.3    85   16.0   291    20.5   1012.2    0.00 
 181   11:30   0.86   56.5    84   14.8   292    18.8   1012.2    0.00 
 181   11:40   0.88   56.6    84   15.3   291    19.8   1012.1    0.00 
 181   11:50   0.89   56.2    85   14.8   292    19.6   1012.1    0.00 
 181   12:00   0.91   56.4    84   16.6   293    21.5   1011.9    0.00 
 181   12:10   0.91   56.8    83   16.6   292    21.8   1011.8    0.00 
 181   12:20   0.87   56.7    84   16.3   293    21.9   1011.9    0.00 
 181   12:30   0.89   57.0    83   16.3   293    21.4   1011.8    0.00 
 181   12:40   0.90   56.6    84   16.7   292    21.3   1011.7    0.00 
 181   12:50   0.93   57.3    82   15.5   291    21.7   1011.6    0.00 
 181   13:00   0.92   57.4    82   15.6   292    20.5   1011.6    0.00 
 181   13:10   0.88   57.6    82   14.5   297    21.2   1011.6    0.00 
 181   13:20   0.91   58.0    80   15.1   295    20.2   1011.5    0.00 
 181   13:30   0.90   58.0    80   15.8   293    21.8   1011.5    0.00 
 181   13:40   0.88   57.7    81   15.8   292    21.3   1011.4    0.00 
 181   13:50   0.82   57.7    81   15.8   294    22.9   1011.3    0.00 
 181   14:00   0.87   57.8    81   15.1   292    20.0   1011.3    0.00 
 181   14:10   0.85   57.3    82   17.0   292    20.5   1011.2    0.00 
 181   14:20   0.84   57.3    82   15.7   292    20.0   1011.2    0.00 
 181   14:30   0.82   57.9    81   14.4   289    20.6   1011.1    0.00 
 181   14:40   0.78   57.9    81   13.4   290    17.6   1011.1    0.00 
 181   14:50   0.77   57.5    82   13.8   293    20.0   1010.9    0.00 
 181   15:00   0.75   57.1    83   14.2   290    19.3   1010.8    0.00 
 181   15:10   0.73   56.9    84   14.4   292    20.0   1010.8    0.00 
 181   15:20   0.66   56.7    84   15.1   293    19.4   1010.8    0.00 
 181   15:30   0.60   56.9    84   13.1   296    18.4   1010.8    0.00 
 181   15:40   0.61   56.6    84   13.1   294    17.5   1010.7    0.00 
 181   15:50   0.61   57.1    83   13.1   296    18.5   1010.6    0.00 
 181   16:00   0.55   57.0    83   13.7   297    20.2   1010.6    0.00 
 181   16:10   0.53   57.0    83   13.4   296    18.6   1010.6    0.00 
 181   16:20   0.44   56.4    84   13.2   293    17.5   1010.6    0.00 
 181   16:30   0.48   55.9    86   14.5   293    18.5   1010.5    0.00 
 181   16:40   0.48   56.0    86   14.9   294    20.1   1010.5    0.00 
 181   16:50   0.45   55.5    87   15.4   294    18.7   1010.5    0.00 
 181   17:00   0.39   55.6    87   14.4   293    18.6   1010.5    0.00 
 181   17:10   0.40   55.5    87   15.6   295    20.8   1010.5    0.00 
 181   17:20   0.31   55.0    88   14.4   294    19.1   1010.5    0.00 
 181   17:30   0.31   55.2    88   11.9   297    16.9   1010.5    0.00 
 181   17:40   0.30   55.2    88   13.0   297    18.0   1010.6    0.00 
 181   17:50   0.21   54.6    89   13.6   299    19.9   1010.6    0.00 
 181   18:00   0.14   54.3    90   12.7   297    17.7   1010.6    0.00 
 181   18:10   0.10   53.7    91   13.5   294    17.8   1010.6    0.00 
 181   18:20   0.10   53.5    92   12.6   298    18.1   1010.6    0.00 
 181   18:30   0.10   53.4    92   12.9   298    19.2   1010.6    0.00 
 181   18:40   0.07   53.0    93   14.1   300    19.1   1010.4    0.00 
 181   18:50   0.06   53.0    94   12.2   298    19.0   1010.3    0.00 
 181   19:00   0.06   52.8    94   11.5   298    17.3   1010.3    0.00 
 181   19:10   0.03   52.8    94   10.7   300    17.0   1010.2    0.00 
 181   19:20   0.01   52.5    95   11.9   296    16.0   1010.2    0.00 
 181   19:30   0.00   52.3    95   12.0   298    16.7   1010.3    0.00 
 181   19:40   0.00   52.4    95    9.8   300    14.0   1010.3    0.00 
 181   19:50   0.00   52.5    95    8.0   301    12.5   1010.3    0.00 
 181   20:00   0.00   52.5    95    8.7   307    11.8   1010.3    0.00 
 181   20:10   0.00   52.5    95    9.5   299    14.0   1010.2    0.00 
 181   20:20   0.00   52.5    95    9.3   295    12.6   1010.2    0.00 
 181   20:30   0.00   52.5    95    9.4   293    11.9   1010.3    0.00 
 181   20:40   0.00   52.5    95   10.7   292    13.5   1010.3    0.00 
 181   20:50   0.00   52.5    95   11.2   290    13.8   1010.3    0.00 
 181   21:00   0.00   52.5    96   11.0   294    13.9   1010.3    0.00 
 181   21:10   0.00   52.5    96    9.2   295    12.1   1010.3    0.00 
 181   21:20   0.00   52.6    96    9.1   291    10.8   1010.4    0.00 
 181   21:30   0.00   52.5    95    8.8   291    10.9   1010.3    0.00 
 181   21:40   0.00   52.4    95    5.8   290     8.6   1010.3    0.00 
 181   21:50   0.00   52.4    96    6.1   284     7.6   1010.3    0.00 
 181   22:00   0.00   52.4    96    5.2   278     7.1   1010.4    0.00 
 181   22:10   0.00   52.4    96    6.4   279     8.9   1010.5    0.00 
 181   22:20   0.00   52.2    96    6.7   278     8.6   1010.5    0.00 
 181   22:30   0.00   52.1    96    5.3   279     6.3   1010.4    0.00 
 181   22:40   0.00   52.1    96    3.8   274     5.6   1010.4    0.00 
 181   22:50   0.00   52.1    96    2.5   264     4.5   1010.3    0.00 
 181   23:00   0.00   52.1    96    2.0   269     3.2   1010.3    0.00 
 181   23:10   0.00   52.1    96    2.3   237     3.2   1010.3    0.00 
 181   23:20   0.00   52.0    96    2.9   205     4.1   1010.3    0.00 
 181   23:30   0.00   52.0    96    2.7   198     3.7   1010.3    0.00 
 181   23:40   0.00   51.9    96    2.4   200     3.8   1010.2    0.00 
 181   23:50   0.00   51.9    96    2.1   211     2.9   1010.1    0.00 
 182    0:00   0.00   51.8    96    1.6   204     2.3   1009.9    0.00 
 182    0:10   0.00   51.8    96    1.9   221     2.8   1009.7    0.00 
 182    0:20   0.00   51.9    97    2.5   222     4.2   1009.7    0.00 
 182    0:30   0.00   51.7    97    3.1   239     4.2   1009.8    0.00 
 182    0:40   0.00   51.8    97    3.6   250     4.9   1009.7    0.00 
 182    0:50   0.00   51.6    97    4.0   256     5.3   1009.7    0.00 
 182    1:00   0.00   51.5    97    2.7   241     4.1   1009.5    0.00 
 182    1:10   0.00   51.5    97    3.1   265     5.3   1009.6    0.00 
 182    1:20   0.00   51.5    97    3.8   273     5.5   1009.5    0.00 
 182    1:30   0.00   51.5    97    3.8   279     5.5   1009.5    0.00 
 182    1:40   0.00   51.6    97    4.3   282     6.8   1009.4    0.00 
 182    1:50   0.00   51.4    97    4.7   310     7.7   1009.4    0.00 
 182    2:00   0.00   51.4    97    6.1   273     8.6   1009.4    0.00 
 182    2:10   0.00   51.2    98    6.5   259     8.6   1009.3    0.00 
 182    2:20   0.00   51.1    98    5.5   264     6.7   1009.3    0.00 
 182    2:30   0.00   50.8    98    2.1   306     5.2   1009.3    0.00 
 182    2:40   0.00   50.9    98    1.5   312     4.9   1009.3    0.00 
 182    2:50   0.00   51.1    98    0.4    33     1.5   1009.3    0.00 
 182    3:00   0.00   51.2    98    2.2   195     4.2   1009.3    0.00 
 182    3:10   0.00   51.2    98    2.2   160     3.7   1009.3    0.00 
 182    3:20   0.00   51.3    98    2.2   160     3.8   1009.4    0.00 
 182    3:30   0.00   51.4    98    3.4   162     8.9   1009.4    0.00 
 182    3:40   0.00   51.3    98    5.0   165     8.0   1009.3    0.00 
 182    3:50   0.00   51.0    98    6.2   182     9.0   1009.1    0.00 
 182    4:00   0.00   50.9    98    6.4   168    10.1   1009.1    0.00 
 182    4:10   0.00   50.9    98    5.8   146     8.5   1009.0    0.00 
 182    4:20   0.00   50.8    98    7.1   101     9.0   1009.0    0.00 
 182    4:30   0.00   50.7    98    5.7    99     7.7   1009.0    0.00 
 182    4:40   0.00   50.8    98    4.0   111     8.0   1009.0    0.00 

Return to Norris Rancho Marino Reserve graphs page.


Western Regional Climate Center,wrcc@dri.edu